createdAt,value
2022-08-17T00:00:35.006Z,3.90
2022-08-17T00:01:51.954Z,4.40
2022-08-17T00:03:05.725Z,4.40
2022-08-17T00:04:14.642Z,3.70
2022-08-17T00:05:25.139Z,3.50
2022-08-17T00:06:33.380Z,3.80
2022-08-17T00:07:41.170Z,3.90
2022-08-17T00:08:52.423Z,4.20
2022-08-17T00:09:58.931Z,3.80
2022-08-17T00:11:08.303Z,3.80
2022-08-17T00:12:43.431Z,3.80
2022-08-17T00:13:47.091Z,4.30
2022-08-17T00:14:55.375Z,4.40
2022-08-17T00:16:05.101Z,4.00
2022-08-17T00:17:11.307Z,3.60
2022-08-17T00:19:00.937Z,3.80
2022-08-17T00:19:45.171Z,3.80
2022-08-17T00:20:52.444Z,3.90
2022-08-17T00:22:31.360Z,4.20
2022-08-17T00:23:29.542Z,3.50
2022-08-17T00:24:36.930Z,3.70
2022-08-17T00:25:46.964Z,4.80
2022-08-17T00:26:54.040Z,4.30
2022-08-17T00:28:02.578Z,4.70
2022-08-17T00:29:08.679Z,4.00
2022-08-17T00:30:17.367Z,4.10
2022-08-17T00:31:25.038Z,4.10
2022-08-17T00:33:15.071Z,4.10
2022-08-17T00:33:59.412Z,4.10
2022-08-17T00:35:09.187Z,4.80
2022-08-17T00:36:15.741Z,4.40
2022-08-17T00:37:22.094Z,4.10
2022-08-17T00:38:29.077Z,4.50
2022-08-17T00:39:37.999Z,4.30
2022-08-17T00:40:55.843Z,4.20
2022-08-17T00:42:17.432Z,4.50
2022-08-17T00:43:42.231Z,4.20
2022-08-17T00:44:51.282Z,4.30
2022-08-17T00:45:57.844Z,4.00
2022-08-17T00:47:04.479Z,3.90
2022-08-17T00:48:29.882Z,4.50
2022-08-17T00:49:40.161Z,4.40
2022-08-17T00:51:00.024Z,4.10
2022-08-17T00:52:12.204Z,4.40
2022-08-17T00:53:20.901Z,3.90
2022-08-17T00:54:41.896Z,4.40
2022-08-17T00:55:51.548Z,4.10
2022-08-17T00:57:00.304Z,4.20
2022-08-17T00:58:08.415Z,4.10
2022-08-17T00:59:15.770Z,4.00
2022-08-17T01:00:35.140Z,4.50
2022-08-17T01:01:46.885Z,4.40
2022-08-17T01:02:57.669Z,4.70
2022-08-17T01:04:06.193Z,3.90
2022-08-17T01:05:26.499Z,3.90
2022-08-17T01:06:37.697Z,4.60
2022-08-17T01:07:46.406Z,4.60
2022-08-17T01:08:57.513Z,3.80
2022-08-17T01:10:58.953Z,3.90
2022-08-17T01:11:41.760Z,4.20
2022-08-17T01:12:50.189Z,3.90
2022-08-17T01:13:57.114Z,4.00
2022-08-17T01:15:02.994Z,4.40
2022-08-17T01:16:27.629Z,4.40
2022-08-17T01:17:34.271Z,4.20
2022-08-17T01:18:40.451Z,4.70
2022-08-17T01:19:46.851Z,3.80
2022-08-17T01:20:54.897Z,4.30
2022-08-17T01:22:13.570Z,4.10
2022-08-17T01:23:21.701Z,4.50
2022-08-17T01:24:33.702Z,5.00
2022-08-17T01:25:43.083Z,4.20
2022-08-17T01:26:50.997Z,3.70
2022-08-17T01:27:58.116Z,3.80
2022-08-17T01:29:06.371Z,4.10
2022-08-17T01:30:58.091Z,4.30
2022-08-17T01:31:48.357Z,3.90
2022-08-17T01:32:56.402Z,3.60
2022-08-17T01:34:03.893Z,4.30
2022-08-17T01:35:11.576Z,3.60
2022-08-17T01:36:17.431Z,3.80
2022-08-17T01:37:29.613Z,4.70
2022-08-17T01:38:40.068Z,4.20
2022-08-17T01:39:53.609Z,4.40
2022-08-17T01:41:06.032Z,4.50
2022-08-17T01:42:25.695Z,4.20
2022-08-17T01:43:48.318Z,3.60
2022-08-17T01:45:00.231Z,4.40
2022-08-17T01:46:08.891Z,3.60
2022-08-17T01:47:14.771Z,3.80
2022-08-17T01:48:22.203Z,3.60
2022-08-17T01:49:29.117Z,4.10
2022-08-17T01:50:41.600Z,4.30
2022-08-17T01:51:49.230Z,4.00
2022-08-17T01:53:01.677Z,3.80
2022-08-17T01:54:12.037Z,3.90
2022-08-17T01:55:19.190Z,3.90
2022-08-17T01:56:30.051Z,4.90
2022-08-17T01:57:36.978Z,4.20
2022-08-17T01:58:45.945Z,4.40
2022-08-17T01:59:55.356Z,3.80
2022-08-17T02:01:03.462Z,4.00
2022-08-17T02:02:11.883Z,3.80
2022-08-17T02:03:37.642Z,4.50
2022-08-17T02:04:44.534Z,4.10
2022-08-17T02:05:50.899Z,4.20
2022-08-17T02:06:58.003Z,3.80
2022-08-17T02:08:05.291Z,4.40
2022-08-17T02:09:16.866Z,5.00
2022-08-17T02:10:24.846Z,3.80
2022-08-17T02:11:40.895Z,3.60
2022-08-17T02:12:48.313Z,4.00
2022-08-17T02:14:02.485Z,4.00
2022-08-17T02:15:13.026Z,4.20
2022-08-17T02:16:20.850Z,4.00
2022-08-17T02:17:28.722Z,3.90
2022-08-17T02:18:40.333Z,4.00
2022-08-17T02:19:48.609Z,4.80
2022-08-17T02:20:58.712Z,4.10
2022-08-17T02:22:06.298Z,4.60
2022-08-17T02:23:13.693Z,4.00
2022-08-17T02:24:59.731Z,4.10
2022-08-17T02:25:55.109Z,4.10
2022-08-17T02:27:02.698Z,4.30
2022-08-17T02:28:11.896Z,3.70
2022-08-17T02:29:18.411Z,3.70
2022-08-17T02:30:59.778Z,4.30
2022-08-17T02:31:56.610Z,4.30
2022-08-17T02:33:04.029Z,3.90
2022-08-17T02:34:13.761Z,3.40
2022-08-17T02:35:19.770Z,3.40
2022-08-17T02:36:30.414Z,4.50
2022-08-17T02:37:39.110Z,4.00
2022-08-17T02:38:47.706Z,4.10
2022-08-17T02:39:58.535Z,3.90
2022-08-17T02:41:05.669Z,4.00
2022-08-17T02:42:15.263Z,3.70
2022-08-17T02:43:22.581Z,3.20
2022-08-17T02:44:35.447Z,3.40
2022-08-17T02:45:50.950Z,3.60
2022-08-17T02:47:00.084Z,3.50
2022-08-17T02:48:07.736Z,3.10
2022-08-17T02:49:16.535Z,3.20
2022-08-17T02:50:25.708Z,3.60
2022-08-17T02:51:33.290Z,3.00
2022-08-17T02:52:48.873Z,3.70
2022-08-17T02:54:39.078Z,3.50
2022-08-17T02:55:41.143Z,3.60
2022-08-17T02:56:51.067Z,3.30
2022-08-17T02:57:58.363Z,3.00
2022-08-17T02:59:09.959Z,3.30
2022-08-17T03:00:19.826Z,3.00
2022-08-17T03:01:27.502Z,3.80
2022-08-17T03:02:40.420Z,3.60
2022-08-17T03:03:48.615Z,3.10
2022-08-17T03:04:57.805Z,3.40
2022-08-17T03:06:05.207Z,3.50
2022-08-17T03:07:11.434Z,3.50
2022-08-17T03:08:18.710Z,3.40
2022-08-17T03:09:24.506Z,3.50
2022-08-17T03:10:30.815Z,3.80
2022-08-17T03:11:36.752Z,4.10
2022-08-17T03:12:45.175Z,3.10
2022-08-17T03:13:52.047Z,3.70
2022-08-17T03:14:59.397Z,3.30
2022-08-17T03:16:05.299Z,3.30
2022-08-17T03:17:17.166Z,3.50
2022-08-17T03:18:25.981Z,3.30
2022-08-17T03:19:33.080Z,3.70
2022-08-17T03:20:39.452Z,3.60
2022-08-17T03:21:47.353Z,3.60
2022-08-17T03:23:05.656Z,3.30
2022-08-17T03:24:15.835Z,3.70
2022-08-17T03:25:36.995Z,3.80
2022-08-17T03:26:48.506Z,3.80
2022-08-17T03:27:58.283Z,3.40
2022-08-17T03:29:04.936Z,3.90
2022-08-17T03:30:14.167Z,3.80
2022-08-17T03:31:21.948Z,3.40
2022-08-17T03:32:28.408Z,3.90
2022-08-17T03:33:35.939Z,3.60
2022-08-17T03:34:44.122Z,4.00
2022-08-17T03:35:52.359Z,3.70
2022-08-17T03:36:59.774Z,4.40
2022-08-17T03:38:07.759Z,4.20
2022-08-17T03:39:13.930Z,3.90
2022-08-17T03:40:55.026Z,3.60
2022-08-17T03:41:53.812Z,4.00
2022-08-17T03:43:10.062Z,4.60
2022-08-17T03:44:16.754Z,3.70
2022-08-17T03:45:48.180Z,4.40
2022-08-17T03:47:19.919Z,3.90
2022-08-17T03:48:45.769Z,3.80
2022-08-17T03:50:16.553Z,4.20
2022-08-17T03:51:44.202Z,3.60
2022-08-17T03:53:10.687Z,3.70
2022-08-17T03:54:37.371Z,4.10
2022-08-17T03:56:05.431Z,3.90
2022-08-17T03:57:12.408Z,3.10
2022-08-17T03:58:18.302Z,3.30
2022-08-17T03:59:25.002Z,3.90
2022-08-17T04:00:36.076Z,4.00
2022-08-17T04:01:51.229Z,3.90
2022-08-17T04:03:01.827Z,3.50
2022-08-17T04:04:10.625Z,3.80
2022-08-17T04:05:17.966Z,3.40
2022-08-17T04:06:32.245Z,3.90
2022-08-17T04:07:39.864Z,3.50
2022-08-17T04:08:46.823Z,3.90
2022-08-17T04:09:55.126Z,3.00
2022-08-17T04:11:02.239Z,4.10
2022-08-17T04:12:19.747Z,3.50
2022-08-17T04:13:28.512Z,3.70
2022-08-17T04:14:52.945Z,3.30
2022-08-17T04:16:08.511Z,3.60
2022-08-17T04:17:31.258Z,4.00
2022-08-17T04:18:41.232Z,4.10
2022-08-17T04:19:53.255Z,3.30
2022-08-17T04:21:00.379Z,4.40
2022-08-17T04:22:06.697Z,3.20
2022-08-17T04:23:17.619Z,4.00
2022-08-17T04:24:24.011Z,3.20
2022-08-17T04:25:31.079Z,3.50
2022-08-17T04:26:52.128Z,3.40
2022-08-17T04:28:02.321Z,3.60
2022-08-17T04:29:08.525Z,3.50
2022-08-17T04:30:14.560Z,4.60
2022-08-17T04:31:20.095Z,4.00
2022-08-17T04:33:00.470Z,3.30
2022-08-17T04:33:52.844Z,3.70
2022-08-17T04:35:01.401Z,3.50
2022-08-17T04:36:09.532Z,3.40
2022-08-17T04:37:18.363Z,3.60
2022-08-17T04:38:28.287Z,3.70
2022-08-17T04:39:36.103Z,3.20
2022-08-17T04:41:09.180Z,3.40
2022-08-17T04:42:18.681Z,3.50
2022-08-17T04:43:31.709Z,3.10
2022-08-17T04:44:39.627Z,3.50
2022-08-17T04:46:07.120Z,3.20
2022-08-17T04:47:15.716Z,3.80
2022-08-17T04:48:23.130Z,3.70
2022-08-17T04:49:38.477Z,3.90
2022-08-17T04:50:48.367Z,3.50
2022-08-17T04:51:56.240Z,3.10
2022-08-17T04:53:05.903Z,3.90
2022-08-17T04:54:18.704Z,3.60
2022-08-17T04:55:25.203Z,3.30
2022-08-17T04:56:31.311Z,3.70
2022-08-17T04:57:41.815Z,3.20
2022-08-17T04:58:52.672Z,3.70
2022-08-17T04:59:59.802Z,3.10
2022-08-17T05:01:07.188Z,3.80
2022-08-17T05:02:14.743Z,3.60
2022-08-17T05:03:22.443Z,3.00
2022-08-17T05:04:35.182Z,3.00
2022-08-17T05:05:50.678Z,4.00
2022-08-17T05:06:59.868Z,3.80
2022-08-17T05:08:08.763Z,3.10
2022-08-17T05:09:15.853Z,3.40
2022-08-17T05:10:22.584Z,3.80
2022-08-17T05:11:31.690Z,3.00
2022-08-17T05:12:39.852Z,3.10
2022-08-17T05:13:51.455Z,3.10
2022-08-17T05:15:00.416Z,3.30
2022-08-17T05:16:07.762Z,2.80
2022-08-17T05:17:18.978Z,3.00
2022-08-17T05:18:26.617Z,3.20
2022-08-17T05:19:33.271Z,2.80
2022-08-17T05:20:40.636Z,3.50
2022-08-17T05:21:51.094Z,3.10
2022-08-17T05:22:59.842Z,3.30
2022-08-17T05:24:07.124Z,3.20
2022-08-17T05:25:40.131Z,3.40
2022-08-17T05:26:48.614Z,3.20
2022-08-17T05:27:57.425Z,3.00
2022-08-17T05:29:06.455Z,3.20
2022-08-17T05:30:13.545Z,3.20
2022-08-17T05:31:20.062Z,2.80
2022-08-17T05:32:39.364Z,3.40
2022-08-17T05:33:50.417Z,2.60
2022-08-17T05:35:01.029Z,2.40
2022-08-17T05:36:08.882Z,3.20
2022-08-17T05:37:37.179Z,3.60
2022-08-17T05:38:45.034Z,3.10
2022-08-17T05:39:52.551Z,2.60
2022-08-17T05:40:59.843Z,3.20
2022-08-17T05:42:06.509Z,2.70
2022-08-17T05:43:23.263Z,3.50
2022-08-17T05:44:29.922Z,2.80
2022-08-17T05:45:55.839Z,3.00
2022-08-17T05:47:04.109Z,2.80
2022-08-17T05:48:12.428Z,2.80
2022-08-17T05:49:20.678Z,2.60
2022-08-17T05:50:29.957Z,2.90
2022-08-17T05:51:59.426Z,2.60
2022-08-17T05:53:20.695Z,3.10
2022-08-17T05:55:01.496Z,2.40
2022-08-17T05:56:30.560Z,2.80
2022-08-17T05:58:20.608Z,3.00
2022-08-17T05:59:43.745Z,2.70
2022-08-17T06:01:03.083Z,2.60
2022-08-17T06:02:28.657Z,2.80
2022-08-17T06:03:45.760Z,2.50
2022-08-17T06:05:18.414Z,2.70
2022-08-17T06:06:31.248Z,2.40
2022-08-17T06:07:55.763Z,2.80
2022-08-17T06:09:13.942Z,2.40
2022-08-17T06:10:32.293Z,2.40
2022-08-17T06:11:59.742Z,2.40
2022-08-17T06:13:09.937Z,2.40
2022-08-17T06:14:49.990Z,2.80
2022-08-17T06:16:33.814Z,3.40
2022-08-17T06:17:34.313Z,2.70
2022-08-17T06:18:58.258Z,3.40
2022-08-17T06:20:09.508Z,2.20
2022-08-17T06:21:19.658Z,2.40
2022-08-17T06:22:39.907Z,2.50
2022-08-17T06:24:01.422Z,2.90
2022-08-17T06:25:10.898Z,3.10
2022-08-17T06:26:37.249Z,2.60
2022-08-17T06:27:57.228Z,2.40
2022-08-17T06:29:42.770Z,2.20
2022-08-17T06:31:01.057Z,2.80
2022-08-17T06:32:12.647Z,3.10
2022-08-17T06:33:29.219Z,2.70
2022-08-17T06:34:36.622Z,2.60
2022-08-17T06:36:09.187Z,2.40
2022-08-17T06:37:57.765Z,2.30
2022-08-17T06:39:41.135Z,2.60
2022-08-17T06:41:13.459Z,2.20
2022-08-17T06:43:04.982Z,3.20
2022-08-17T06:44:03.451Z,2.70
2022-08-17T06:45:19.974Z,2.40
2022-08-17T06:46:49.337Z,2.30
2022-08-17T06:48:18.015Z,2.30
2022-08-17T06:50:03.080Z,2.60
2022-08-17T06:51:34.996Z,2.00
2022-08-17T06:53:09.665Z,2.20
2022-08-17T06:54:39.095Z,2.40
2022-08-17T06:56:06.492Z,2.40
2022-08-17T06:57:19.770Z,1.90
2022-08-17T06:58:29.581Z,2.30
2022-08-17T07:00:14.573Z,2.30
2022-08-17T07:01:25.803Z,2.40
2022-08-17T07:02:58.966Z,2.60
2022-08-17T07:04:21.934Z,2.20
2022-08-17T07:06:08.624Z,2.20
2022-08-17T07:07:32.878Z,2.60
2022-08-17T07:08:58.085Z,2.30
2022-08-17T07:10:05.451Z,2.40
2022-08-17T07:11:43.460Z,2.40
2022-08-17T07:12:52.488Z,2.90
2022-08-17T07:14:06.119Z,2.30
2022-08-17T07:15:22.949Z,2.20
2022-08-17T07:16:33.607Z,1.90
2022-08-17T07:17:47.821Z,2.30
2022-08-17T07:18:55.819Z,2.10
2022-08-17T07:20:10.175Z,2.50
2022-08-17T07:21:45.068Z,2.70
2022-08-17T07:23:02.417Z,2.20
2022-08-17T07:25:02.594Z,2.50
2022-08-17T07:26:09.910Z,2.70
2022-08-17T07:27:31.801Z,2.10
2022-08-17T07:28:38.528Z,2.30
2022-08-17T07:29:51.225Z,2.00
2022-08-17T07:31:00.426Z,2.50
2022-08-17T07:32:07.874Z,2.20
2022-08-17T07:33:20.703Z,2.40
2022-08-17T07:34:26.544Z,2.30
2022-08-17T07:35:45.307Z,2.70
2022-08-17T07:37:05.803Z,2.20
2022-08-17T07:38:25.603Z,2.10
2022-08-17T07:39:34.676Z,2.30
2022-08-17T07:41:08.971Z,2.90
2022-08-17T07:42:15.435Z,2.70
2022-08-17T07:43:42.663Z,2.50
2022-08-17T07:44:55.093Z,2.40
2022-08-17T07:46:46.977Z,2.50
2022-08-17T07:48:12.391Z,2.80
2022-08-17T07:49:36.550Z,2.40
2022-08-17T07:50:43.529Z,2.80
2022-08-17T07:52:00.000Z,2.00
2022-08-17T07:53:24.746Z,3.00
2022-08-17T07:54:37.287Z,2.60
2022-08-17T07:55:43.665Z,2.80
2022-08-17T07:56:53.577Z,2.00
2022-08-17T07:58:00.798Z,2.20
2022-08-17T07:59:27.223Z,2.70
2022-08-17T08:00:40.044Z,2.20
2022-08-17T08:02:07.726Z,2.40
2022-08-17T08:03:32.979Z,2.10
2022-08-17T08:05:02.401Z,2.60
2022-08-17T08:06:22.395Z,3.10
2022-08-17T08:07:32.435Z,2.60
2022-08-17T08:08:44.539Z,2.40
2022-08-17T08:10:15.235Z,2.10
2022-08-17T08:11:35.656Z,2.70
2022-08-17T08:12:45.589Z,2.30
2022-08-17T08:13:52.793Z,2.50
2022-08-17T08:15:00.839Z,2.10
2022-08-17T08:16:28.005Z,2.70
2022-08-17T08:17:37.380Z,2.40
2022-08-17T08:18:54.258Z,2.40
2022-08-17T08:20:34.827Z,2.80
2022-08-17T08:22:12.724Z,2.00
2022-08-17T08:23:42.535Z,2.60
2022-08-17T08:25:06.244Z,2.40
2022-08-17T08:26:45.973Z,2.90
2022-08-17T08:28:23.261Z,2.60
2022-08-17T08:29:29.898Z,3.00
2022-08-17T08:30:44.726Z,2.60
2022-08-17T08:32:21.320Z,3.10
2022-08-17T08:33:33.074Z,2.40
2022-08-17T08:35:10.629Z,2.70
2022-08-17T08:36:56.938Z,2.30
2022-08-17T08:38:11.254Z,2.50
2022-08-17T08:39:28.839Z,2.50
2022-08-17T08:41:03.032Z,2.50
2022-08-17T08:42:39.167Z,2.70
2022-08-17T08:44:04.581Z,2.70
2022-08-17T08:45:42.382Z,2.40
2022-08-17T08:46:55.365Z,2.20
2022-08-17T08:48:52.835Z,2.30
2022-08-17T08:50:05.707Z,2.90
2022-08-17T08:51:24.530Z,2.50
2022-08-17T08:52:49.134Z,2.50
2022-08-17T08:54:14.924Z,2.70
2022-08-17T08:55:45.434Z,2.20
2022-08-17T08:57:29.124Z,2.40
2022-08-17T08:58:41.715Z,1.90
2022-08-17T09:00:16.263Z,2.60
2022-08-17T09:01:53.045Z,2.70
2022-08-17T09:03:18.441Z,2.90
2022-08-17T09:05:13.822Z,2.50
2022-08-17T09:06:37.540Z,2.40
2022-08-17T09:08:17.255Z,2.20
2022-08-17T09:09:50.325Z,2.20
2022-08-17T09:11:05.468Z,2.70
2022-08-17T09:12:48.914Z,2.50
2022-08-17T09:13:55.645Z,2.90
2022-08-17T09:15:18.617Z,2.90
2022-08-17T09:16:43.836Z,2.90
2022-08-17T09:19:02.199Z,2.70
2022-08-17T09:20:03.272Z,2.60
2022-08-17T09:21:33.849Z,2.80
2022-08-17T09:22:43.918Z,2.80
2022-08-17T09:24:12.232Z,3.10
2022-08-17T09:25:22.295Z,2.60
2022-08-17T09:26:31.513Z,2.70
2022-08-17T09:27:52.910Z,2.80
2022-08-17T09:29:10.535Z,2.50
2022-08-17T09:30:16.479Z,2.50
2022-08-17T09:31:31.269Z,3.20
2022-08-17T09:32:55.694Z,3.20
2022-08-17T09:34:06.315Z,2.70
2022-08-17T09:35:18.615Z,3.10
2022-08-17T09:36:34.627Z,2.40
2022-08-17T09:37:56.160Z,3.20
2022-08-17T09:39:11.137Z,2.60
2022-08-17T09:40:22.976Z,2.70
2022-08-17T09:41:48.966Z,3.30
2022-08-17T09:43:26.293Z,2.50
2022-08-17T09:44:44.819Z,2.70
2022-08-17T09:45:54.915Z,2.40
2022-08-17T09:47:27.544Z,3.00
2022-08-17T09:48:42.509Z,2.40
2022-08-17T09:49:50.027Z,2.80
2022-08-17T09:51:07.493Z,2.90
2022-08-17T09:52:30.905Z,3.00
2022-08-17T09:53:39.688Z,3.00
2022-08-17T09:54:46.135Z,2.80
2022-08-17T09:56:16.452Z,2.90
2022-08-17T09:57:30.220Z,2.90
2022-08-17T09:59:17.919Z,2.80
2022-08-17T10:00:28.131Z,2.70
2022-08-17T10:01:51.128Z,3.00
2022-08-17T10:03:10.548Z,2.20
2022-08-17T10:04:53.685Z,2.80
2022-08-17T10:06:28.763Z,2.50
2022-08-17T10:07:42.565Z,2.10
2022-08-17T10:09:21.039Z,3.00
2022-08-17T10:10:37.016Z,3.20
2022-08-17T10:12:17.111Z,2.70
2022-08-17T10:13:37.803Z,3.10
2022-08-17T10:15:07.719Z,2.40
2022-08-17T10:16:58.062Z,2.60
2022-08-17T10:18:16.794Z,2.60
2022-08-17T10:19:31.991Z,3.10
2022-08-17T10:21:21.765Z,3.20
2022-08-17T10:22:53.203Z,2.70
2022-08-17T10:25:21.598Z,2.70
2022-08-17T10:26:25.657Z,2.30
2022-08-17T10:27:56.700Z,2.20
2022-08-17T10:29:13.012Z,2.60
2022-08-17T10:30:19.708Z,2.90
2022-08-17T10:31:36.265Z,3.10
2022-08-17T10:32:57.057Z,3.30
2022-08-17T10:34:42.097Z,2.30
2022-08-17T10:36:08.712Z,3.00
2022-08-17T10:37:50.947Z,2.70
2022-08-17T10:39:32.369Z,3.10
2022-08-17T10:40:54.150Z,2.60
2022-08-17T10:42:03.586Z,3.10
2022-08-17T10:43:30.395Z,3.00
2022-08-17T10:45:20.167Z,2.80
2022-08-17T10:47:02.672Z,2.70
2022-08-17T10:48:13.346Z,3.10
2022-08-17T10:49:19.465Z,2.90
2022-08-17T10:51:02.724Z,3.20
2022-08-17T10:52:30.948Z,2.70
2022-08-17T10:53:36.796Z,3.00
2022-08-17T10:55:07.746Z,3.30
2022-08-17T10:56:17.989Z,3.20
2022-08-17T10:57:32.843Z,3.20
2022-08-17T10:58:55.775Z,3.10
2022-08-17T11:00:27.452Z,3.40
2022-08-17T11:02:01.650Z,2.60
2022-08-17T11:03:25.909Z,3.80
2022-08-17T11:04:37.606Z,3.60
2022-08-17T11:06:13.123Z,3.50
2022-08-17T11:07:31.286Z,3.00
2022-08-17T11:08:58.048Z,3.10
2022-08-17T11:10:10.481Z,3.60
2022-08-17T11:11:37.138Z,3.20
2022-08-17T11:13:05.697Z,3.40
2022-08-17T11:14:55.756Z,2.80
2022-08-17T11:16:25.816Z,3.00
2022-08-17T11:17:53.690Z,3.00
2022-08-17T11:19:36.282Z,3.00
2022-08-17T11:20:55.981Z,3.10
2022-08-17T11:22:32.732Z,3.40
2022-08-17T11:24:07.433Z,3.10
2022-08-17T11:25:35.871Z,3.40
2022-08-17T11:26:48.517Z,3.90
2022-08-17T11:28:06.722Z,2.90
2022-08-17T11:29:26.234Z,3.20
2022-08-17T11:30:45.213Z,3.70
2022-08-17T11:32:03.518Z,3.20
2022-08-17T11:33:33.940Z,3.80
2022-08-17T11:34:45.262Z,3.30
2022-08-17T11:35:52.501Z,3.20
2022-08-17T11:37:26.659Z,3.20
2022-08-17T11:39:00.520Z,3.30
2022-08-17T11:40:16.212Z,3.00
2022-08-17T11:41:34.226Z,2.80
2022-08-17T11:43:11.969Z,3.50
2022-08-17T11:44:55.198Z,3.70
2022-08-17T11:46:51.702Z,3.30
2022-08-17T11:48:44.971Z,4.10
2022-08-17T11:50:37.615Z,3.90
2022-08-17T11:51:56.547Z,3.80
2022-08-17T11:53:05.449Z,3.30
2022-08-17T11:54:34.610Z,3.10
2022-08-17T11:55:44.851Z,3.30
2022-08-17T11:56:53.673Z,3.00
2022-08-17T11:58:03.424Z,3.00
2022-08-17T11:59:44.336Z,3.70
2022-08-17T12:00:58.875Z,3.60
2022-08-17T12:02:32.353Z,3.70
2022-08-17T12:03:54.190Z,3.50
2022-08-17T12:05:24.079Z,4.20
2022-08-17T12:06:41.621Z,4.20
2022-08-17T12:08:06.305Z,3.80
2022-08-17T12:09:21.452Z,3.70
2022-08-17T12:10:33.151Z,3.80
2022-08-17T12:11:55.433Z,2.90
2022-08-17T12:13:15.971Z,3.40
2022-08-17T12:14:45.429Z,2.60
2022-08-17T12:15:56.985Z,3.00
2022-08-17T12:17:09.133Z,3.40
2022-08-17T12:18:32.670Z,3.40
2022-08-17T12:19:39.690Z,3.40
2022-08-17T12:20:45.583Z,3.40
2022-08-17T12:22:11.010Z,3.20
2022-08-17T12:23:37.849Z,3.50
2022-08-17T12:24:57.659Z,3.50
2022-08-17T12:26:24.389Z,3.00
2022-08-17T12:28:04.398Z,3.40
2022-08-17T12:29:18.469Z,3.50
2022-08-17T12:30:41.378Z,2.90
2022-08-17T12:31:49.985Z,3.40
2022-08-17T12:32:56.077Z,3.20
2022-08-17T12:34:04.863Z,3.10
2022-08-17T12:35:33.758Z,3.10
2022-08-17T12:36:41.975Z,3.00
2022-08-17T12:37:50.240Z,3.30
2022-08-17T12:39:13.705Z,3.60
2022-08-17T12:40:29.976Z,3.50
2022-08-17T12:41:41.393Z,3.70
2022-08-17T12:42:59.792Z,4.20
2022-08-17T12:44:50.437Z,3.80
2022-08-17T12:46:00.262Z,3.10
2022-08-17T12:47:22.194Z,3.80
2022-08-17T12:48:35.054Z,3.70
2022-08-17T12:49:43.336Z,2.90
2022-08-17T12:50:50.024Z,3.70
2022-08-17T12:52:16.723Z,2.80
2022-08-17T12:53:27.724Z,3.90
2022-08-17T12:55:07.619Z,3.00
2022-08-17T12:56:13.903Z,3.60
2022-08-17T12:57:23.443Z,4.20
2022-08-17T12:58:37.060Z,4.10
2022-08-17T12:59:59.292Z,3.70
2022-08-17T13:01:10.053Z,4.70
2022-08-17T13:02:56.961Z,3.90
2022-08-17T13:04:04.253Z,4.00
2022-08-17T13:05:35.696Z,3.60
2022-08-17T13:06:47.785Z,3.70
2022-08-17T13:07:55.632Z,3.70
2022-08-17T13:09:40.388Z,3.80
2022-08-17T13:10:56.222Z,3.10
2022-08-17T13:12:03.440Z,4.00
2022-08-17T13:13:28.390Z,4.30
2022-08-17T13:14:34.658Z,4.20
2022-08-17T13:15:52.099Z,4.40
2022-08-17T13:17:01.622Z,4.50
2022-08-17T13:18:10.002Z,3.80
2022-08-17T13:19:39.804Z,4.50
2022-08-17T13:21:00.368Z,4.40
2022-08-17T13:22:11.981Z,3.60
2022-08-17T13:23:22.592Z,4.50
2022-08-17T13:24:37.932Z,3.90
2022-08-17T13:26:05.824Z,5.20
2022-08-17T13:27:15.943Z,4.20
2022-08-17T13:28:29.786Z,3.80
2022-08-17T13:29:51.613Z,4.50
2022-08-17T13:31:51.864Z,4.50
2022-08-17T13:33:04.892Z,4.40
2022-08-17T13:34:34.816Z,3.80
2022-08-17T13:35:52.163Z,4.50
2022-08-17T13:37:26.870Z,5.10
2022-08-17T13:38:52.102Z,4.60
2022-08-17T13:40:13.415Z,5.30
2022-08-17T13:41:37.115Z,4.20
2022-08-17T13:42:54.278Z,4.20
2022-08-17T13:44:02.496Z,4.70
2022-08-17T13:45:40.868Z,4.20
2022-08-17T13:46:52.500Z,4.70
2022-08-17T13:48:12.507Z,4.20
2022-08-17T13:49:20.867Z,4.80
2022-08-17T13:50:27.223Z,4.60
2022-08-17T13:52:03.169Z,4.60
2022-08-17T13:53:19.112Z,3.80
2022-08-17T13:54:25.109Z,4.30
2022-08-17T13:55:31.831Z,4.80
2022-08-17T13:57:01.720Z,4.20
2022-08-17T13:58:07.624Z,4.00
2022-08-17T13:59:14.989Z,4.40
2022-08-17T14:00:31.555Z,4.60
2022-08-17T14:01:53.552Z,4.40
2022-08-17T14:03:02.391Z,4.10
2022-08-17T14:04:12.734Z,5.20
2022-08-17T14:05:18.731Z,3.90
2022-08-17T14:06:52.236Z,4.30
2022-08-17T14:08:06.728Z,4.20
2022-08-17T14:09:15.622Z,4.30
2022-08-17T14:10:22.353Z,4.60
2022-08-17T14:11:29.947Z,3.90
2022-08-17T14:12:37.126Z,4.70
2022-08-17T14:13:44.688Z,4.50
2022-08-17T14:14:51.208Z,4.10
2022-08-17T14:15:57.688Z,4.90
2022-08-17T14:17:03.927Z,3.80
2022-08-17T14:18:09.754Z,4.00
2022-08-17T14:19:16.440Z,4.00
2022-08-17T14:20:23.022Z,4.50
2022-08-17T14:21:30.144Z,4.10
2022-08-17T14:22:38.259Z,4.10
2022-08-17T14:23:54.281Z,4.50
2022-08-17T14:25:04.451Z,4.00
2022-08-17T14:26:17.117Z,3.70
2022-08-17T14:27:28.481Z,4.50
2022-08-17T14:28:36.386Z,4.30
2022-08-17T14:29:42.874Z,3.70
2022-08-17T14:30:49.091Z,4.20
2022-08-17T14:31:55.215Z,4.10
2022-08-17T14:33:02.990Z,4.30
2022-08-17T14:34:10.949Z,4.20
2022-08-17T14:35:17.730Z,3.90
2022-08-17T14:36:25.040Z,4.50
2022-08-17T14:37:30.827Z,4.90
2022-08-17T14:38:38.917Z,4.10
2022-08-17T14:39:46.859Z,4.90
2022-08-17T14:40:54.209Z,4.20
2022-08-17T14:42:02.146Z,4.30
2022-08-17T14:43:08.689Z,4.60
2022-08-17T14:44:17.577Z,5.00
2022-08-17T14:45:30.421Z,4.10
2022-08-17T14:46:45.195Z,4.70
2022-08-17T14:47:53.343Z,5.20
2022-08-17T14:49:03.580Z,4.50
2022-08-17T14:50:14.362Z,3.90
2022-08-17T14:51:27.001Z,4.60
2022-08-17T14:52:34.712Z,5.20
2022-08-17T14:53:47.157Z,4.40
2022-08-17T14:54:54.701Z,4.10
2022-08-17T14:56:02.927Z,4.30
2022-08-17T14:57:26.197Z,4.30
2022-08-17T14:58:40.057Z,4.30
2022-08-17T14:59:54.614Z,4.80
2022-08-17T15:01:04.101Z,5.00
2022-08-17T15:02:11.407Z,4.60
2022-08-17T15:03:18.518Z,4.40
2022-08-17T15:04:25.501Z,4.70
2022-08-17T15:05:39.760Z,4.20
2022-08-17T15:06:51.889Z,5.00
2022-08-17T15:07:58.756Z,4.60
2022-08-17T15:09:05.212Z,3.60
2022-08-17T15:10:14.950Z,4.40
2022-08-17T15:11:21.632Z,4.40
2022-08-17T15:12:32.061Z,4.10
2022-08-17T15:13:52.673Z,4.00
2022-08-17T15:15:01.778Z,4.20
2022-08-17T15:16:14.470Z,4.00
2022-08-17T15:17:22.289Z,3.70
2022-08-17T15:18:28.514Z,4.90
2022-08-17T15:19:35.822Z,4.90
2022-08-17T15:20:41.963Z,4.10
2022-08-17T15:21:49.272Z,4.40
2022-08-17T15:22:59.527Z,4.10
2022-08-17T15:24:06.868Z,4.20
2022-08-17T15:25:12.783Z,4.10
2022-08-17T15:26:21.760Z,3.40
2022-08-17T15:27:37.802Z,3.70
2022-08-17T15:28:49.001Z,4.70
2022-08-17T15:30:03.342Z,3.40
2022-08-17T15:31:10.804Z,4.40
2022-08-17T15:32:32.438Z,4.60
2022-08-17T15:33:39.139Z,4.50
2022-08-17T15:34:45.986Z,4.70
2022-08-17T15:35:54.776Z,4.40
2022-08-17T15:37:02.452Z,4.10
2022-08-17T15:38:12.101Z,5.00
2022-08-17T15:39:19.909Z,4.00
2022-08-17T15:40:26.262Z,4.10
2022-08-17T15:41:34.229Z,3.60
2022-08-17T15:42:44.618Z,5.70
2022-08-17T15:43:52.769Z,5.00
2022-08-17T15:45:01.172Z,5.20
2022-08-17T15:46:17.500Z,5.00
2022-08-17T15:47:23.414Z,4.60
2022-08-17T15:48:42.520Z,5.40
2022-08-17T15:49:56.640Z,5.40
2022-08-17T15:51:07.281Z,5.20
2022-08-17T15:52:22.517Z,5.10
2022-08-17T15:53:28.650Z,5.10
2022-08-17T15:54:36.156Z,5.90
2022-08-17T15:55:46.304Z,5.10
2022-08-17T15:56:54.114Z,5.10
2022-08-17T15:58:01.713Z,4.90
2022-08-17T15:59:10.581Z,4.90
2022-08-17T16:00:19.722Z,4.50
2022-08-17T16:02:16.300Z,5.70
2022-08-17T16:03:44.716Z,5.40
2022-08-17T16:04:29.663Z,5.70
2022-08-17T16:05:40.885Z,4.80
2022-08-17T16:06:48.253Z,5.50
2022-08-17T16:07:54.990Z,3.90
2022-08-17T16:09:01.669Z,4.50
2022-08-17T16:10:12.299Z,4.70
2022-08-17T16:11:22.325Z,4.90
2022-08-17T16:12:29.230Z,4.90
2022-08-17T16:13:40.939Z,4.70
2022-08-17T16:14:48.893Z,5.40
2022-08-17T16:15:58.067Z,5.20
2022-08-17T16:17:39.643Z,4.80
2022-08-17T16:18:37.510Z,5.40
2022-08-17T16:19:44.185Z,4.90
2022-08-17T16:20:54.641Z,5.00
2022-08-17T16:22:04.638Z,4.60
2022-08-17T16:23:20.027Z,4.30
2022-08-17T16:24:27.555Z,4.30
2022-08-17T16:25:38.389Z,4.60
2022-08-17T16:27:02.490Z,3.90
2022-08-17T16:28:10.369Z,4.40
2022-08-17T16:29:18.836Z,4.80
2022-08-17T16:30:26.988Z,4.80
2022-08-17T16:31:33.724Z,4.10
2022-08-17T16:32:41.739Z,5.20
2022-08-17T16:34:15.966Z,4.90
2022-08-17T16:35:19.638Z,5.10
2022-08-17T16:36:26.201Z,4.70
2022-08-17T16:37:34.266Z,4.60
2022-08-17T16:38:42.744Z,4.50
2022-08-17T16:39:50.595Z,4.70
2022-08-17T16:41:00.845Z,4.40
2022-08-17T16:42:30.385Z,4.40
2022-08-17T16:43:37.177Z,4.00
2022-08-17T16:44:45.546Z,4.90
2022-08-17T16:45:52.744Z,4.30
2022-08-17T16:47:02.873Z,4.80
2022-08-17T16:48:10.873Z,4.70
2022-08-17T16:49:35.195Z,3.70
2022-08-17T16:51:04.498Z,4.60
2022-08-17T16:52:16.051Z,4.30
2022-08-17T16:53:45.031Z,5.10
2022-08-17T16:55:03.124Z,4.80
2022-08-17T16:56:11.330Z,4.40